<?xml version="1.0" encoding="UTF-8" standalone="no" ?><gpx xmlns="http://www.topografix.com/GPX/1/1" xmlns:gpxx="http://www.garmin.com/xmlschemas/GpxExtensions/v3" xmlns:wptx1="http://www.garmin.com/xmlschemas/WaypointExtension/v1" xmlns:gpxtpx="http://www.garmin.com/xmlschemas/TrackPointExtension/v1" creator="Dakota 20" version="1.1" xmlns:xsi="http://www.w3.org/2001/XMLSchema-instance" xsi:schemaLocation="http://www.topografix.com/GPX/1/1 http://www.topografix.com/GPX/1/1/gpx.xsd http://www.garmin.com/xmlschemas/GpxExtensions/v3 http://www8.garmin.com/xmlschemas/GpxExtensionsv3.xsd http://www.garmin.com/xmlschemas/WaypointExtension/v1 http://www8.garmin.com/xmlschemas/WaypointExtensionv1.xsd http://www.garmin.com/xmlschemas/TrackPointExtension/v1 http://www.garmin.com/xmlschemas/TrackPointExtensionv1.xsd"><metadata><link href="http://www.garmin.com"><text>Garmin International</text></link><time>2013-12-04T15:10:48Z</time></metadata><trk><name>Current Track: 04 DEC 2013 10:00</name><extensions><gpxx:TrackExtension><gpxx:DisplayColor>Cyan</gpxx:DisplayColor></gpxx:TrackExtension></extensions><trkseg><trkpt lat="51.9435988460" lon="-2.0177473035"><ele>190.00</ele><time>2013-12-04T10:00:21Z</time></trkpt><trkpt lat="51.9436085690" lon="-2.0177426934"><ele>191.44</ele><time>2013-12-04T10:00:40Z</time></trkpt><trkpt lat="51.9435798191" lon="-2.0176964253"><ele>192.88</ele><time>2013-12-04T10:00:46Z</time></trkpt><trkpt lat="51.9435162842" lon="-2.0176116005"><ele>193.36</ele><time>2013-12-04T10:00:52Z</time></trkpt><trkpt lat="51.9434479717" lon="-2.0175286196"><ele>193.84</ele><time>2013-12-04T10:01:00Z</time></trkpt><trkpt lat="51.9434016198" lon="-2.0173996221"><ele>194.32</ele><time>2013-12-04T10:01:07Z</time></trkpt><trkpt lat="51.9433962554" lon="-2.0172495861"><ele>195.77</ele><time>2013-12-04T10:01:25Z</time></trkpt><trkpt lat="51.9433189742" lon="-2.0172334090"><ele>196.25</ele><time>2013-12-04T10:01:39Z</time></trkpt><trkpt lat="51.9432525896" lon="-2.0172410365"><ele>197.21</ele><time>2013-12-04T10:01:52Z</time></trkpt><trkpt lat="51.9432279468" lon="-2.0172299724"><ele>197.21</ele><time>2013-12-04T10:01:55Z</time></trkpt><trkpt lat="51.9431462232" lon="-2.0170631725"><ele>198.65</ele><time>2013-12-04T10:02:11Z</time></trkpt><trkpt lat="51.9431901444" lon="-2.0168561395"><ele>201.05</ele><time>2013-12-04T10:02:27Z</time></trkpt><trkpt lat="51.9432054833" lon="-2.0168214384"><ele>200.57</ele><time>2013-12-04T10:02:30Z</time></trkpt><trkpt lat="51.9432884641" lon="-2.0165478531"><ele>200.09</ele><time>2013-12-04T10:02:50Z</time></trkpt><trkpt lat="51.9433253445" lon="-2.0163046103"><ele>200.09</ele><time>2013-12-04T10:03:07Z</time></trkpt><trkpt lat="51.9433565252" lon="-2.0160052925"><ele>201.05</ele><time>2013-12-04T10:03:24Z</time></trkpt><trkpt lat="51.9433827605" lon="-2.0157431904"><ele>201.05</ele><time>2013-12-04T10:03:40Z</time></trkpt><trkpt lat="51.9434260111" lon="-2.0154426154"><ele>201.53</ele><time>2013-12-04T10:03:58Z</time></trkpt><trkpt lat="51.9434822537" lon="-2.0151722990"><ele>201.53</ele><time>2013-12-04T10:04:15Z</time></trkpt><trkpt lat="51.9435569365" lon="-2.0149277151"><ele>202.01</ele><time>2013-12-04T10:04:31Z</time></trkpt><trkpt lat="51.9436316192" lon="-2.0146483462"><ele>202.49</ele><time>2013-12-04T10:04:49Z</time></trkpt><trkpt lat="51.9436855149" lon="-2.0143621881"><ele>201.05</ele><time>2013-12-04T10:05:06Z</time></trkpt><trkpt lat="51.9437503070" lon="-2.0140408259"><ele>201.53</ele><time>2013-12-04T10:05:26Z</time></trkpt><trkpt lat="51.9437910430" lon="-2.0137217268"><ele>201.53</ele><time>2013-12-04T10:05:45Z</time></trkpt><trkpt lat="51.9438047893" lon="-2.0135060605"><ele>202.49</ele><time>2013-12-04T10:05:57Z</time></trkpt><trkpt lat="51.9438302703" lon="-2.0131789986"><ele>202.49</ele><time>2013-12-04T10:06:16Z</time></trkpt><trkpt lat="51.9438522309" lon="-2.0127920900"><ele>201.53</ele><time>2013-12-04T10:06:37Z</time></trkpt><trkpt lat="51.9438508898" lon="-2.0124513656"><ele>201.05</ele><time>2013-12-04T10:06:57Z</time></trkpt><trkpt lat="51.9438563380" lon="-2.0120866690"><ele>199.13</ele><time>2013-12-04T10:07:17Z</time></trkpt><trkpt lat="51.9438535720" lon="-2.0117846690"><ele>197.21</ele><time>2013-12-04T10:07:37Z</time></trkpt><trkpt lat="51.9438485429" lon="-2.0114711858"><ele>196.73</ele><time>2013-12-04T10:07:56Z</time></trkpt><trkpt lat="51.9438602775" lon="-2.0111608040"><ele>196.73</ele><time>2013-12-04T10:08:15Z</time></trkpt><trkpt lat="51.9438702520" lon="-2.0109042339"><ele>196.73</ele><time>2013-12-04T10:08:30Z</time></trkpt><trkpt lat="51.9438700844" lon="-2.0106173214"><ele>196.73</ele><time>2013-12-04T10:08:47Z</time></trkpt><trkpt lat="51.9438606966" lon="-2.0102943666"><ele>196.25</ele><time>2013-12-04T10:09:06Z</time></trkpt><trkpt lat="51.9438546617" lon="-2.0100420713"><ele>195.28</ele><time>2013-12-04T10:09:22Z</time></trkpt><trkpt lat="51.9438492134" lon="-2.0097078010"><ele>193.36</ele><time>2013-12-04T10:09:42Z</time></trkpt><trkpt lat="51.9438531529" lon="-2.0093695074"><ele>192.88</ele><time>2013-12-04T10:10:02Z</time></trkpt><trkpt lat="51.9438643847" lon="-2.0090056490"><ele>191.44</ele><time>2013-12-04T10:10:23Z</time></trkpt><trkpt lat="51.9438705873" lon="-2.0086777490"><ele>190.96</ele><time>2013-12-04T10:10:42Z</time></trkpt><trkpt lat="51.9438713416" lon="-2.0085566305"><ele>190.96</ele><time>2013-12-04T10:10:58Z</time></trkpt><trkpt lat="51.9438610319" lon="-2.0085206721"><ele>191.44</ele><time>2013-12-04T10:11:16Z</time></trkpt><trkpt lat="51.9438522309" lon="-2.0084859710"><ele>191.92</ele><time>2013-12-04T10:11:39Z</time></trkpt><trkpt lat="51.9438793883" lon="-2.0082104579"><ele>191.44</ele><time>2013-12-04T10:11:56Z</time></trkpt><trkpt lat="51.9438968226" lon="-2.0078496169"><ele>190.48</ele><time>2013-12-04T10:12:13Z</time></trkpt><trkpt lat="51.9438995887" lon="-2.0075061265"><ele>189.04</ele><time>2013-12-04T10:12:33Z</time></trkpt><trkpt lat="51.9438987505" lon="-2.0071902126"><ele>188.08</ele><time>2013-12-04T10:12:51Z</time></trkpt><trkpt lat="51.9438986667" lon="-2.0068789925"><ele>186.15</ele><time>2013-12-04T10:13:10Z</time></trkpt><trkpt lat="51.9439055398" lon="-2.0066093467"><ele>185.67</ele><time>2013-12-04T10:13:27Z</time></trkpt><trkpt lat="51.9438915420" lon="-2.0063904114"><ele>184.23</ele><time>2013-12-04T10:13:44Z</time></trkpt><trkpt lat="51.9439035282" lon="-2.0061719790"><ele>183.27</ele><time>2013-12-04T10:14:01Z</time></trkpt><trkpt lat="51.9438865967" lon="-2.0059412252"><ele>183.27</ele><time>2013-12-04T10:14:19Z</time></trkpt><trkpt lat="51.9438889436" lon="-2.0059292391"><ele>183.75</ele><time>2013-12-04T10:14:37Z</time></trkpt><trkpt lat="51.9438701682" lon="-2.0059004892"><ele>183.75</ele><time>2013-12-04T10:14:51Z</time></trkpt><trkpt lat="51.9438887760" lon="-2.0058579929"><ele>184.23</ele><time>2013-12-04T10:14:55Z</time></trkpt><trkpt lat="51.9440314360" lon="-2.0056709088"><ele>182.31</ele><time>2013-12-04T10:15:12Z</time></trkpt><trkpt lat="51.9441538956" lon="-2.0056110620"><ele>181.35</ele><time>2013-12-04T10:15:28Z</time></trkpt><trkpt lat="51.9443332683" lon="-2.0055804681"><ele>180.38</ele><time>2013-12-04T10:15:46Z</time></trkpt><trkpt lat="51.9444982242" lon="-2.0055002533"><ele>179.42</ele><time>2013-12-04T10:16:04Z</time></trkpt><trkpt lat="51.9446755853" lon="-2.0054424182"><ele>178.94</ele><time>2013-12-04T10:16:23Z</time></trkpt><trkpt lat="51.9449029863" lon="-2.0053585153"><ele>177.98</ele><time>2013-12-04T10:16:46Z</time></trkpt><trkpt lat="51.9450783357" lon="-2.0052910410"><ele>176.06</ele><time>2013-12-04T10:17:05Z</time></trkpt><trkpt lat="51.9452853687" lon="-2.0052031148"><ele>175.58</ele><time>2013-12-04T10:17:26Z</time></trkpt><trkpt lat="51.9454977661" lon="-2.0051172003"><ele>174.14</ele><time>2013-12-04T10:17:49Z</time></trkpt><trkpt lat="51.9456974231" lon="-2.0050366502"><ele>173.17</ele><time>2013-12-04T10:18:11Z</time></trkpt><trkpt lat="51.9458428491" lon="-2.0049355645"><ele>172.21</ele><time>2013-12-04T10:18:28Z</time></trkpt><trkpt lat="51.9460232276" lon="-2.0047563594"><ele>170.29</ele><time>2013-12-04T10:18:50Z</time></trkpt><trkpt lat="51.9461761974" lon="-2.0045790821"><ele>169.33</ele><time>2013-12-04T10:19:10Z</time></trkpt><trkpt lat="51.9463071227" lon="-2.0044199098"><ele>168.37</ele><time>2013-12-04T10:19:28Z</time></trkpt><trkpt lat="51.9464787841" lon="-2.0042341668"><ele>166.45</ele><time>2013-12-04T10:19:49Z</time></trkpt><trkpt lat="51.9466445781" lon="-2.0040236134"><ele>164.52</ele><time>2013-12-04T10:20:12Z</time></trkpt><trkpt lat="51.9467929378" lon="-2.0038649440"><ele>162.12</ele><time>2013-12-04T10:20:32Z</time></trkpt><trkpt lat="51.9469329994" lon="-2.0037000719"><ele>161.16</ele><time>2013-12-04T10:20:50Z</time></trkpt><trkpt lat="51.9471257832" lon="-2.0035139099"><ele>159.72</ele><time>2013-12-04T10:21:12Z</time></trkpt><trkpt lat="51.9473025575" lon="-2.0034049451"><ele>158.75</ele><time>2013-12-04T10:21:31Z</time></trkpt><trkpt lat="51.9475192297" lon="-2.0033940487"><ele>158.27</ele><time>2013-12-04T10:21:49Z</time></trkpt><trkpt lat="51.9476406835" lon="-2.0034847409"><ele>156.83</ele><time>2013-12-04T10:22:03Z</time></trkpt><trkpt lat="51.9477944076" lon="-2.0035880059"><ele>156.83</ele><time>2013-12-04T10:22:19Z</time></trkpt><trkpt lat="51.9479470421" lon="-2.0036645327"><ele>154.43</ele><time>2013-12-04T10:22:38Z</time></trkpt><trkpt lat="51.9481293485" lon="-2.0037668757"><ele>154.43</ele><time>2013-12-04T10:22:55Z</time></trkpt><trkpt lat="51.9482731819" lon="-2.0039058477"><ele>153.47</ele><time>2013-12-04T10:23:12Z</time></trkpt><trkpt lat="51.9483432546" lon="-2.0041272137"><ele>152.99</ele><time>2013-12-04T10:23:27Z</time></trkpt><trkpt lat="51.9484479446" lon="-2.0043277927"><ele>152.51</ele><time>2013-12-04T10:23:42Z</time></trkpt><trkpt lat="51.9484668039" lon="-2.0043585543"><ele>152.03</ele><time>2013-12-04T10:23:45Z</time></trkpt><trkpt lat="51.9485028461" lon="-2.0043898188"><ele>152.51</ele><time>2013-12-04T10:23:49Z</time></trkpt><trkpt lat="51.9486773573" lon="-2.0044862945"><ele>150.58</ele><time>2013-12-04T10:24:06Z</time></trkpt><trkpt lat="51.9488274772" lon="-2.0046448801"><ele>148.66</ele><time>2013-12-04T10:24:25Z</time></trkpt><trkpt lat="51.9488883298" lon="-2.0047699381"><ele>148.18</ele><time>2013-12-04T10:24:35Z</time></trkpt><trkpt lat="51.9488920178" lon="-2.0048292819"><ele>149.14</ele><time>2013-12-04T10:24:39Z</time></trkpt><trkpt lat="51.9488730747" lon="-2.0051292703"><ele>149.62</ele><time>2013-12-04T10:24:58Z</time></trkpt><trkpt lat="51.9487524591" lon="-2.0054437593"><ele>150.58</ele><time>2013-12-04T10:25:18Z</time></trkpt><trkpt lat="51.9486313406" lon="-2.0056117326"><ele>152.99</ele><time>2013-12-04T10:25:35Z</time></trkpt><trkpt lat="51.9486997370" lon="-2.0057753474"><ele>152.51</ele><time>2013-12-04T10:25:50Z</time></trkpt><trkpt lat="51.9487571530" lon="-2.0058082882"><ele>152.51</ele><time>2013-12-04T10:26:04Z</time></trkpt><trkpt lat="51.9487968832" lon="-2.0058090426"><ele>152.03</ele><time>2013-12-04T10:26:08Z</time></trkpt><trkpt lat="51.9489956181" lon="-2.0058288239"><ele>150.10</ele><time>2013-12-04T10:26:27Z</time></trkpt><trkpt lat="51.9491466600" lon="-2.0058620162"><ele>148.66</ele><time>2013-12-04T10:26:44Z</time></trkpt><trkpt lat="51.9493086822" lon="-2.0058605075"><ele>146.74</ele><time>2013-12-04T10:27:04Z</time></trkpt><trkpt lat="51.9494896475" lon="-2.0059110504"><ele>145.30</ele><time>2013-12-04T10:27:24Z</time></trkpt><trkpt lat="51.9496820122" lon="-2.0059426501"><ele>143.37</ele><time>2013-12-04T10:27:43Z</time></trkpt><trkpt lat="51.9498239178" lon="-2.0059818774"><ele>140.97</ele><time>2013-12-04T10:27:59Z</time></trkpt><trkpt lat="51.9498979300" lon="-2.0059914328"><ele>140.49</ele><time>2013-12-04T10:28:06Z</time></trkpt><trkpt lat="51.9500643108" lon="-2.0060145669"><ele>138.09</ele><time>2013-12-04T10:28:23Z</time></trkpt><trkpt lat="51.9502234831" lon="-2.0060590748"><ele>135.68</ele><time>2013-12-04T10:28:39Z</time></trkpt><trkpt lat="51.9503951445" lon="-2.0060952846"><ele>134.24</ele><time>2013-12-04T10:28:58Z</time></trkpt><trkpt lat="51.9506134093" lon="-2.0061133057"><ele>132.32</ele><time>2013-12-04T10:29:19Z</time></trkpt><trkpt lat="51.9508315064" lon="-2.0061879884"><ele>130.40</ele><time>2013-12-04T10:29:41Z</time></trkpt><trkpt lat="51.9510221109" lon="-2.0061658602"><ele>128.95</ele><time>2013-12-04T10:30:00Z</time></trkpt><trkpt lat="51.9511832949" lon="-2.0059691370"><ele>127.03</ele><time>2013-12-04T10:30:20Z</time></trkpt><trkpt lat="51.9512737356" lon="-2.0057478547"><ele>126.07</ele><time>2013-12-04T10:30:37Z</time></trkpt><trkpt lat="51.9512915891" lon="-2.0057165902"><ele>125.11</ele><time>2013-12-04T10:30:39Z</time></trkpt><trkpt lat="51.9514604844" lon="-2.0054522250"><ele>124.15</ele><time>2013-12-04T10:31:00Z</time></trkpt><trkpt lat="51.9516399410" lon="-2.0052671526"><ele>124.15</ele><time>2013-12-04T10:31:18Z</time></trkpt><trkpt lat="51.9518504106" lon="-2.0051405020"><ele>123.67</ele><time>2013-12-04T10:31:40Z</time></trkpt><trkpt lat="51.9520853553" lon="-2.0050870255"><ele>124.63</ele><time>2013-12-04T10:32:01Z</time></trkpt><trkpt lat="51.9522367325" lon="-2.0050980058"><ele>125.11</ele><time>2013-12-04T10:32:15Z</time></trkpt><trkpt lat="51.9523672387" lon="-2.0051484648"><ele>126.55</ele><time>2013-12-04T10:32:28Z</time></trkpt><trkpt lat="51.9524731860" lon="-2.0052284282"><ele>127.51</ele><time>2013-12-04T10:32:40Z</time></trkpt><trkpt lat="51.9526189473" lon="-2.0053390693"><ele>129.43</ele><time>2013-12-04T10:32:58Z</time></trkpt><trkpt lat="51.9526579231" lon="-2.0053697471"><ele>128.95</ele><time>2013-12-04T10:33:16Z</time></trkpt><trkpt lat="51.9526731782" lon="-2.0053693280"><ele>128.47</ele><time>2013-12-04T10:33:18Z</time></trkpt><trkpt lat="51.9527614396" lon="-2.0054265764"><ele>129.92</ele><time>2013-12-04T10:33:33Z</time></trkpt><trkpt lat="51.9528787863" lon="-2.0054635406"><ele>130.40</ele><time>2013-12-04T10:33:47Z</time></trkpt><trkpt lat="51.9528934546" lon="-2.0055045281"><ele>130.88</ele><time>2013-12-04T10:34:01Z</time></trkpt><trkpt lat="51.9528973103" lon="-2.0055185258"><ele>131.36</ele><time>2013-12-04T10:34:06Z</time></trkpt><trkpt lat="51.9529747590" lon="-2.0056764409"><ele>131.36</ele><time>2013-12-04T10:34:20Z</time></trkpt><trkpt lat="51.9530280679" lon="-2.0058039296"><ele>132.80</ele><time>2013-12-04T10:34:29Z</time></trkpt><trkpt lat="51.9530775212" lon="-2.0058614295"><ele>132.32</ele><time>2013-12-04T10:34:46Z</time></trkpt><trkpt lat="51.9531668723" lon="-2.0059542172"><ele>133.76</ele><time>2013-12-04T10:34:59Z</time></trkpt><trkpt lat="51.9533185009" lon="-2.0060679596"><ele>134.72</ele><time>2013-12-04T10:35:16Z</time></trkpt><trkpt lat="51.9534725603" lon="-2.0061957836"><ele>136.16</ele><time>2013-12-04T10:35:34Z</time></trkpt><trkpt lat="51.9535365980" lon="-2.0062926784"><ele>135.68</ele><time>2013-12-04T10:35:43Z</time></trkpt><trkpt lat="51.9536705408" lon="-2.0064284652"><ele>138.57</ele><time>2013-12-04T10:35:59Z</time></trkpt><trkpt lat="51.9537937548" lon="-2.0065838657"><ele>138.57</ele><time>2013-12-04T10:36:14Z</time></trkpt><trkpt lat="51.9539017137" lon="-2.0067753084"><ele>140.01</ele><time>2013-12-04T10:36:31Z</time></trkpt><trkpt lat="51.9539982732" lon="-2.0069202315"><ele>139.53</ele><time>2013-12-04T10:36:45Z</time></trkpt><trkpt lat="51.9540502410" lon="-2.0070005301"><ele>140.01</ele><time>2013-12-04T10:37:02Z</time></trkpt><trkpt lat="51.9540839363" lon="-2.0071113389"><ele>140.01</ele><time>2013-12-04T10:37:13Z</time></trkpt><trkpt lat="51.9541716948" lon="-2.0072722714"><ele>140.49</ele><time>2013-12-04T10:37:28Z</time></trkpt><trkpt lat="51.9542700984" lon="-2.0074555837"><ele>141.45</ele><time>2013-12-04T10:37:43Z</time></trkpt><trkpt lat="51.9543505646" lon="-2.0076761954"><ele>142.41</ele><time>2013-12-04T10:37:59Z</time></trkpt><trkpt lat="51.9544419274" lon="-2.0079124812"><ele>143.85</ele><time>2013-12-04T10:38:16Z</time></trkpt><trkpt lat="51.9544453640" lon="-2.0079313405"><ele>143.85</ele><time>2013-12-04T10:38:17Z</time></trkpt><trkpt lat="51.9545061328" lon="-2.0081250463"><ele>144.82</ele><time>2013-12-04T10:38:30Z</time></trkpt><trkpt lat="51.9545158558" lon="-2.0081651956"><ele>145.78</ele><time>2013-12-04T10:38:32Z</time></trkpt><trkpt lat="51.9545680750" lon="-2.0084494259"><ele>146.26</ele><time>2013-12-04T10:38:48Z</time></trkpt><trkpt lat="51.9545954838" lon="-2.0087227598"><ele>147.22</ele><time>2013-12-04T10:39:04Z</time></trkpt><trkpt lat="51.9546135888" lon="-2.0087619871"><ele>148.66</ele><time>2013-12-04T10:39:07Z</time></trkpt><trkpt lat="51.9547202066" lon="-2.0089788269"><ele>148.18</ele><time>2013-12-04T10:39:25Z</time></trkpt><trkpt lat="51.9547596853" lon="-2.0090545993"><ele>147.70</ele><time>2013-12-04T10:39:31Z</time></trkpt><trkpt lat="51.9548287522" lon="-2.0092074852"><ele>148.66</ele><time>2013-12-04T10:39:45Z</time></trkpt><trkpt lat="51.9549279101" lon="-2.0094659831"><ele>149.14</ele><time>2013-12-04T10:40:03Z</time></trkpt><trkpt lat="51.9550504535" lon="-2.0095767081"><ele>149.14</ele><time>2013-12-04T10:40:20Z</time></trkpt><trkpt lat="51.9552545529" lon="-2.0096132532"><ele>150.58</ele><time>2013-12-04T10:40:37Z</time></trkpt><trkpt lat="51.9553648587" lon="-2.0096972398"><ele>150.10</ele><time>2013-12-04T10:40:52Z</time></trkpt><trkpt lat="51.9554865640" lon="-2.0099419076"><ele>149.62</ele><time>2013-12-04T10:41:12Z</time></trkpt><trkpt lat="51.9555399567" lon="-2.0101505332"><ele>148.18</ele><time>2013-12-04T10:41:28Z</time></trkpt><trkpt lat="51.9556509331" lon="-2.0103794429"><ele>148.18</ele><time>2013-12-04T10:41:45Z</time></trkpt><trkpt lat="51.9557468221" lon="-2.0105505176"><ele>146.74</ele><time>2013-12-04T10:42:00Z</time></trkpt><trkpt lat="51.9558724668" lon="-2.0107604004"><ele>145.30</ele><time>2013-12-04T10:42:19Z</time></trkpt><trkpt lat="51.9559461437" lon="-2.0109346602"><ele>141.93</ele><time>2013-12-04T10:42:34Z</time></trkpt><trkpt lat="51.9560108520" lon="-2.0110823493"><ele>141.93</ele><time>2013-12-04T10:42:52Z</time></trkpt><trkpt lat="51.9560020510" lon="-2.0111295395"><ele>142.41</ele><time>2013-12-04T10:43:10Z</time></trkpt><trkpt lat="51.9560268614" lon="-2.0112370793"><ele>141.93</ele><time>2013-12-04T10:43:23Z</time></trkpt><trkpt lat="51.9560218323" lon="-2.0112408511"><ele>141.93</ele><time>2013-12-04T10:43:43Z</time></trkpt><trkpt lat="51.9560252689" lon="-2.0112338942"><ele>142.41</ele><time>2013-12-04T10:44:14Z</time></trkpt><trkpt lat="51.9560201559" lon="-2.0112317149"><ele>142.89</ele><time>2013-12-04T10:44:48Z</time></trkpt><trkpt lat="51.9560581259" lon="-2.0112896338"><ele>142.89</ele><time>2013-12-04T10:45:05Z</time></trkpt><trkpt lat="51.9560896419" lon="-2.0113515761"><ele>143.37</ele><time>2013-12-04T10:45:09Z</time></trkpt><trkpt lat="51.9561331440" lon="-2.0114405919"><ele>142.89</ele><time>2013-12-04T10:45:16Z</time></trkpt><trkpt lat="51.9561665878" lon="-2.0115304459"><ele>143.37</ele><time>2013-12-04T10:45:23Z</time></trkpt><trkpt lat="51.9562549330" lon="-2.0117056277"><ele>145.30</ele><time>2013-12-04T10:45:39Z</time></trkpt><trkpt lat="51.9563443679" lon="-2.0119106490"><ele>146.26</ele><time>2013-12-04T10:45:55Z</time></trkpt><trkpt lat="51.9564108364" lon="-2.0120270737"><ele>146.74</ele><time>2013-12-04T10:46:05Z</time></trkpt><trkpt lat="51.9565251656" lon="-2.0122104697"><ele>146.74</ele><time>2013-12-04T10:46:21Z</time></trkpt><trkpt lat="51.9566229824" lon="-2.0123824663"><ele>146.74</ele><time>2013-12-04T10:46:36Z</time></trkpt><trkpt lat="51.9566313643" lon="-2.0124138985"><ele>146.74</ele><time>2013-12-04T10:46:38Z</time></trkpt><trkpt lat="51.9566986710" lon="-2.0126485918"><ele>146.26</ele><time>2013-12-04T10:46:54Z</time></trkpt><trkpt lat="51.9567466993" lon="-2.0128094405"><ele>147.22</ele><time>2013-12-04T10:47:07Z</time></trkpt><trkpt lat="51.9567867648" lon="-2.0130054094"><ele>145.30</ele><time>2013-12-04T10:47:19Z</time></trkpt><trkpt lat="51.9568006787" lon="-2.0130298845"><ele>145.78</ele><time>2013-12-04T10:47:22Z</time></trkpt><trkpt lat="51.9568425044" lon="-2.0131517574"><ele>144.34</ele><time>2013-12-04T10:47:37Z</time></trkpt><trkpt lat="51.9568755291" lon="-2.0132380910"><ele>144.82</ele><time>2013-12-04T10:47:57Z</time></trkpt><trkpt lat="51.9569736812" lon="-2.0133145340"><ele>142.89</ele><time>2013-12-04T10:48:14Z</time></trkpt><trkpt lat="51.9570963923" lon="-2.0134936552"><ele>140.97</ele><time>2013-12-04T10:48:32Z</time></trkpt><trkpt lat="51.9572094642" lon="-2.0136693399"><ele>138.57</ele><time>2013-12-04T10:48:48Z</time></trkpt><trkpt lat="51.9573271461" lon="-2.0137796458"><ele>137.13</ele><time>2013-12-04T10:49:05Z</time></trkpt><trkpt lat="51.9574523717" lon="-2.0139793865"><ele>136.16</ele><time>2013-12-04T10:49:23Z</time></trkpt><trkpt lat="51.9575428125" lon="-2.0141295902"><ele>134.24</ele><time>2013-12-04T10:49:39Z</time></trkpt><trkpt lat="51.9576449879" lon="-2.0142680593"><ele>133.28</ele><time>2013-12-04T10:49:53Z</time></trkpt><trkpt lat="51.9577526953" lon="-2.0143424068"><ele>131.36</ele><time>2013-12-04T10:50:08Z</time></trkpt><trkpt lat="51.9578640070" lon="-2.0143965539"><ele>130.40</ele><time>2013-12-04T10:50:26Z</time></trkpt><trkpt lat="51.9579453114" lon="-2.0143999066"><ele>129.43</ele><time>2013-12-04T10:50:42Z</time></trkpt><trkpt lat="51.9580048230" lon="-2.0144444145"><ele>129.43</ele><time>2013-12-04T10:50:59Z</time></trkpt><trkpt lat="51.9580794219" lon="-2.0144009124"><ele>128.47</ele><time>2013-12-04T10:51:15Z</time></trkpt><trkpt lat="51.9582183938" lon="-2.0143775269"><ele>127.99</ele><time>2013-12-04T10:51:37Z</time></trkpt><trkpt lat="51.9584069867" lon="-2.0144740026"><ele>125.59</ele><time>2013-12-04T10:51:50Z</time></trkpt><trkpt lat="51.9585752953" lon="-2.0144363679"><ele>122.71</ele><time>2013-12-04T10:52:11Z</time></trkpt><trkpt lat="51.9587099925" lon="-2.0144114736"><ele>122.22</ele><time>2013-12-04T10:52:28Z</time></trkpt><trkpt lat="51.9588717632" lon="-2.0144497789"><ele>122.22</ele><time>2013-12-04T10:52:47Z</time></trkpt><trkpt lat="51.9590627868" lon="-2.0145945344"><ele>123.19</ele><time>2013-12-04T10:53:09Z</time></trkpt><trkpt lat="51.9592414051" lon="-2.0146251284"><ele>123.19</ele><time>2013-12-04T10:53:30Z</time></trkpt><trkpt lat="51.9593526330" lon="-2.0146460831"><ele>123.19</ele><time>2013-12-04T10:53:45Z</time></trkpt><trkpt lat="51.9595243782" lon="-2.0146908425"><ele>123.67</ele><time>2013-12-04T10:54:05Z</time></trkpt><trkpt lat="51.9597537071" lon="-2.0148216840"><ele>124.15</ele><time>2013-12-04T10:54:22Z</time></trkpt><trkpt lat="51.9598511886" lon="-2.0149616618"><ele>122.71</ele><time>2013-12-04T10:54:35Z</time></trkpt><trkpt lat="51.9600122888" lon="-2.0151495840"><ele>122.22</ele><time>2013-12-04T10:54:53Z</time></trkpt><trkpt lat="51.9600806013" lon="-2.0152132865"><ele>122.71</ele><time>2013-12-04T10:55:07Z</time></trkpt><trkpt lat="51.9600937609" lon="-2.0152413659"><ele>122.22</ele><time>2013-12-04T10:55:24Z</time></trkpt><trkpt lat="51.9601147156" lon="-2.0152588841"><ele>122.22</ele><time>2013-12-04T10:55:46Z</time></trkpt><trkpt lat="51.9601384364" lon="-2.0152664278"><ele>122.22</ele><time>2013-12-04T10:56:08Z</time></trkpt><trkpt lat="51.9601204153" lon="-2.0152427908"><ele>122.71</ele><time>2013-12-04T10:56:28Z</time></trkpt><trkpt lat="51.9601054955" lon="-2.0152287092"><ele>123.19</ele><time>2013-12-04T10:56:50Z</time></trkpt><trkpt lat="51.9600954372" lon="-2.0152142085"><ele>122.71</ele><time>2013-12-04T10:57:21Z</time></trkpt><trkpt lat="51.9600961078" lon="-2.0152090117"><ele>123.19</ele><time>2013-12-04T10:57:55Z</time></trkpt><trkpt lat="51.9600978680" lon="-2.0152001269"><ele>123.67</ele><time>2013-12-04T10:58:23Z</time></trkpt><trkpt lat="51.9600980356" lon="-2.0151686948"><ele>123.67</ele><time>2013-12-04T10:58:50Z</time></trkpt><trkpt lat="51.9600920007" lon="-2.0151533559"><ele>124.15</ele><time>2013-12-04T10:59:24Z</time></trkpt><trkpt lat="51.9600854628" lon="-2.0151216723"><ele>124.15</ele><time>2013-12-04T11:00:05Z</time></trkpt><trkpt lat="51.9600827806" lon="-2.0151191577"><ele>124.15</ele><time>2013-12-04T11:00:36Z</time></trkpt><trkpt lat="51.9600880612" lon="-2.0151212532"><ele>124.15</ele><time>2013-12-04T11:01:11Z</time></trkpt><trkpt lat="51.9600868039" lon="-2.0151297189"><ele>125.11</ele><time>2013-12-04T11:01:49Z</time></trkpt><trkpt lat="51.9600841217" lon="-2.0151275396"><ele>124.63</ele><time>2013-12-04T11:02:22Z</time></trkpt><trkpt lat="51.9600857142" lon="-2.0151315629"><ele>125.11</ele><time>2013-12-04T11:02:57Z</time></trkpt><trkpt lat="51.9600874744" lon="-2.0151360054"><ele>125.59</ele><time>2013-12-04T11:03:29Z</time></trkpt><trkpt lat="51.9600866362" lon="-2.0151315629"><ele>125.59</ele><time>2013-12-04T11:03:58Z</time></trkpt><trkpt lat="51.9600846246" lon="-2.0151376817"><ele>126.07</ele><time>2013-12-04T11:04:20Z</time></trkpt><trkpt lat="51.9600840379" lon="-2.0151399449"><ele>125.59</ele><time>2013-12-04T11:04:45Z</time></trkpt><trkpt lat="51.9600824453" lon="-2.0151423756"><ele>126.07</ele><time>2013-12-04T11:05:12Z</time></trkpt><trkpt lat="51.9600821938" lon="-2.0151485782"><ele>126.07</ele><time>2013-12-04T11:05:39Z</time></trkpt><trkpt lat="51.9600862172" lon="-2.0151541103"><ele>126.07</ele><time>2013-12-04T11:06:09Z</time></trkpt><trkpt lat="51.9600771647" lon="-2.0151573792"><ele>126.55</ele><time>2013-12-04T11:06:41Z</time></trkpt><trkpt lat="51.9600747339" lon="-2.0151681080"><ele>127.03</ele><time>2013-12-04T11:07:12Z</time></trkpt><trkpt lat="51.9600747339" lon="-2.0151619893"><ele>127.51</ele><time>2013-12-04T11:07:42Z</time></trkpt><trkpt lat="51.9600762427" lon="-2.0151626598"><ele>127.99</ele><time>2013-12-04T11:08:08Z</time></trkpt><trkpt lat="51.9600817747" lon="-2.0151615702"><ele>127.99</ele><time>2013-12-04T11:08:40Z</time></trkpt><trkpt lat="51.9600839540" lon="-2.0151617378"><ele>127.99</ele><time>2013-12-04T11:09:09Z</time></trkpt><trkpt lat="51.9600909110" lon="-2.0151676890"><ele>128.47</ele><time>2013-12-04T11:09:39Z</time></trkpt><trkpt lat="51.9600897375" lon="-2.0151752327"><ele>127.99</ele><time>2013-12-04T11:10:12Z</time></trkpt><trkpt lat="51.9600914139" lon="-2.0151759870"><ele>128.47</ele><time>2013-12-04T11:10:39Z</time></trkpt><trkpt lat="51.9600925036" lon="-2.0151699521"><ele>128.95</ele><time>2013-12-04T11:11:00Z</time></trkpt><trkpt lat="51.9600901566" lon="-2.0151664317"><ele>128.95</ele><time>2013-12-04T11:11:21Z</time></trkpt><trkpt lat="51.9601126201" lon="-2.0152001269"><ele>128.95</ele><time>2013-12-04T11:11:46Z</time></trkpt><trkpt lat="51.9601173978" lon="-2.0152158011"><ele>128.95</ele><time>2013-12-04T11:12:04Z</time></trkpt><trkpt lat="51.9601840340" lon="-2.0152659249"><ele>128.47</ele><time>2013-12-04T11:12:25Z</time></trkpt><trkpt lat="51.9602302182" lon="-2.0153169706"><ele>128.47</ele><time>2013-12-04T11:12:44Z</time></trkpt><trkpt lat="51.9603738841" lon="-2.0154141169"><ele>127.99</ele><time>2013-12-04T11:12:59Z</time></trkpt><trkpt lat="51.9605549332" lon="-2.0154674258"><ele>127.03</ele><time>2013-12-04T11:13:16Z</time></trkpt><trkpt lat="51.9606738724" lon="-2.0155032165"><ele>127.51</ele><time>2013-12-04T11:13:27Z</time></trkpt><trkpt lat="51.9608657341" lon="-2.0155784860"><ele>126.55</ele><time>2013-12-04T11:13:43Z</time></trkpt><trkpt lat="51.9610243198" lon="-2.0156994369"><ele>125.59</ele><time>2013-12-04T11:14:00Z</time></trkpt><trkpt lat="51.9611599389" lon="-2.0158852637"><ele>125.59</ele><time>2013-12-04T11:14:18Z</time></trkpt><trkpt lat="51.9613312650" lon="-2.0159843378"><ele>124.15</ele><time>2013-12-04T11:14:35Z</time></trkpt><trkpt lat="51.9614834804" lon="-2.0160229784"><ele>123.19</ele><time>2013-12-04T11:14:52Z</time></trkpt><trkpt lat="51.9616205245" lon="-2.0160687435"><ele>121.26</ele><time>2013-12-04T11:15:10Z</time></trkpt><trkpt lat="51.9617760926" lon="-2.0161757804"><ele>120.78</ele><time>2013-12-04T11:15:27Z</time></trkpt><trkpt lat="51.9618817046" lon="-2.0162944682"><ele>119.82</ele><time>2013-12-04T11:15:46Z</time></trkpt><trkpt lat="51.9619397912" lon="-2.0163395628"><ele>119.34</ele><time>2013-12-04T11:16:01Z</time></trkpt><trkpt lat="51.9620322436" lon="-2.0164906885"><ele>118.38</ele><time>2013-12-04T11:16:19Z</time></trkpt><trkpt lat="51.9621583913" lon="-2.0167201851"><ele>117.42</ele><time>2013-12-04T11:16:37Z</time></trkpt><trkpt lat="51.9622023124" lon="-2.0168569777"><ele>116.94</ele><time>2013-12-04T11:16:54Z</time></trkpt><trkpt lat="51.9621969480" lon="-2.0168408845"><ele>116.94</ele><time>2013-12-04T11:17:10Z</time></trkpt><trkpt lat="51.9622107781" lon="-2.0169506036"><ele>116.46</ele><time>2013-12-04T11:17:24Z</time></trkpt><trkpt lat="51.9622241892" lon="-2.0171975344"><ele>115.98</ele><time>2013-12-04T11:17:39Z</time></trkpt><trkpt lat="51.9622248597" lon="-2.0173873007"><ele>115.01</ele><time>2013-12-04T11:17:51Z</time></trkpt><trkpt lat="51.9622194953" lon="-2.0174372569"><ele>114.53</ele><time>2013-12-04T11:17:53Z</time></trkpt><trkpt lat="51.9622047432" lon="-2.0176293701"><ele>113.57</ele><time>2013-12-04T11:18:06Z</time></trkpt><trkpt lat="51.9622372650" lon="-2.0179640595"><ele>111.17</ele><time>2013-12-04T11:18:27Z</time></trkpt><trkpt lat="51.9622445572" lon="-2.0180073101"><ele>111.65</ele><time>2013-12-04T11:18:29Z</time></trkpt><trkpt lat="51.9622632489" lon="-2.0180875249"><ele>111.17</ele><time>2013-12-04T11:18:33Z</time></trkpt><trkpt lat="51.9622752350" lon="-2.0183991641"><ele>109.25</ele><time>2013-12-04T11:18:51Z</time></trkpt><trkpt lat="51.9623115286" lon="-2.0187001582"><ele>109.73</ele><time>2013-12-04T11:19:08Z</time></trkpt><trkpt lat="51.9623242691" lon="-2.0186419040"><ele>109.73</ele><time>2013-12-04T11:19:29Z</time></trkpt><trkpt lat="51.9623397756" lon="-2.0186342765"><ele>109.73</ele><time>2013-12-04T11:19:43Z</time></trkpt><trkpt lat="51.9624121115" lon="-2.0188755076"><ele>111.65</ele><time>2013-12-04T11:20:02Z</time></trkpt><trkpt lat="51.9624844473" lon="-2.0190699678"><ele>113.09</ele><time>2013-12-04T11:20:22Z</time></trkpt><trkpt lat="51.9625086710" lon="-2.0191505179"><ele>114.05</ele><time>2013-12-04T11:20:27Z</time></trkpt><trkpt lat="51.9626437873" lon="-2.0194429625"><ele>115.50</ele><time>2013-12-04T11:20:48Z</time></trkpt><trkpt lat="51.9627290312" lon="-2.0196196530"><ele>117.90</ele><time>2013-12-04T11:21:01Z</time></trkpt><trkpt lat="51.9627307076" lon="-2.0196305495"><ele>116.94</ele><time>2013-12-04T11:21:02Z</time></trkpt><trkpt lat="51.9628267642" lon="-2.0198578667"><ele>117.42</ele><time>2013-12-04T11:21:19Z</time></trkpt><trkpt lat="51.9628450368" lon="-2.0198975131"><ele>116.46</ele><time>2013-12-04T11:21:22Z</time></trkpt><trkpt lat="51.9628787320" lon="-2.0199625567"><ele>119.82</ele><time>2013-12-04T11:21:28Z</time></trkpt><trkpt lat="51.9629109185" lon="-2.0200369041"><ele>118.86</ele><time>2013-12-04T11:21:33Z</time></trkpt><trkpt lat="51.9629855175" lon="-2.0203890279"><ele>119.82</ele><time>2013-12-04T11:21:53Z</time></trkpt><trkpt lat="51.9630981702" lon="-2.0206486993"><ele>120.30</ele><time>2013-12-04T11:22:10Z</time></trkpt><trkpt lat="51.9631761219" lon="-2.0208025910"><ele>119.82</ele><time>2013-12-04T11:22:29Z</time></trkpt><trkpt lat="51.9632105716" lon="-2.0208405610"><ele>120.78</ele><time>2013-12-04T11:22:43Z</time></trkpt><trkpt lat="51.9632912055" lon="-2.0211412199"><ele>120.30</ele><time>2013-12-04T11:23:01Z</time></trkpt><trkpt lat="51.9633178599" lon="-2.0211812016"><ele>119.34</ele><time>2013-12-04T11:23:04Z</time></trkpt><trkpt lat="51.9634717517" lon="-2.0213272981"><ele>119.34</ele><time>2013-12-04T11:23:24Z</time></trkpt><trkpt lat="51.9635033514" lon="-2.0213748235"><ele>118.38</ele><time>2013-12-04T11:23:28Z</time></trkpt><trkpt lat="51.9636300858" lon="-2.0217138715"><ele>118.86</ele><time>2013-12-04T11:23:50Z</time></trkpt><trkpt lat="51.9637538027" lon="-2.0219592098"><ele>117.90</ele><time>2013-12-04T11:24:10Z</time></trkpt><trkpt lat="51.9637671299" lon="-2.0219812542"><ele>118.38</ele><time>2013-12-04T11:24:12Z</time></trkpt><trkpt lat="51.9638812076" lon="-2.0221887901"><ele>117.90</ele><time>2013-12-04T11:24:28Z</time></trkpt><trkpt lat="51.9640269689" lon="-2.0223201346"><ele>118.38</ele><time>2013-12-04T11:24:46Z</time></trkpt><trkpt lat="51.9641983788" lon="-2.0223670732"><ele>117.90</ele><time>2013-12-04T11:25:05Z</time></trkpt><trkpt lat="51.9642663561" lon="-2.0223559253"><ele>117.42</ele><time>2013-12-04T11:25:28Z</time></trkpt><trkpt lat="51.9642117061" lon="-2.0225031115"><ele>120.78</ele><time>2013-12-04T11:25:40Z</time></trkpt><trkpt lat="51.9640704710" lon="-2.0226186141"><ele>123.67</ele><time>2013-12-04T11:25:58Z</time></trkpt><trkpt lat="51.9639880769" lon="-2.0227053668"><ele>124.15</ele><time>2013-12-04T11:26:18Z</time></trkpt><trkpt lat="51.9638251327" lon="-2.0228003338"><ele>127.51</ele><time>2013-12-04T11:26:33Z</time></trkpt><trkpt lat="51.9636783656" lon="-2.0229338575"><ele>128.47</ele><time>2013-12-04T11:26:50Z</time></trkpt><trkpt lat="51.9636709895" lon="-2.0229375456"><ele>128.95</ele><time>2013-12-04T11:26:51Z</time></trkpt><trkpt lat="51.9636491966" lon="-2.0229533035"><ele>128.95</ele><time>2013-12-04T11:26:53Z</time></trkpt><trkpt lat="51.9634576701" lon="-2.0230688900"><ele>132.32</ele><time>2013-12-04T11:27:12Z</time></trkpt><trkpt lat="51.9631644711" lon="-2.0232534595"><ele>133.28</ele><time>2013-12-04T11:27:34Z</time></trkpt><trkpt lat="51.9630208891" lon="-2.0232986379"><ele>136.16</ele><time>2013-12-04T11:27:52Z</time></trkpt><trkpt lat="51.9628618006" lon="-2.0234065130"><ele>138.09</ele><time>2013-12-04T11:28:11Z</time></trkpt><trkpt lat="51.9628219865" lon="-2.0234593190"><ele>138.09</ele><time>2013-12-04T11:28:33Z</time></trkpt><trkpt lat="51.9627747964" lon="-2.0234778430"><ele>141.45</ele><time>2013-12-04T11:28:45Z</time></trkpt><trkpt lat="51.9625702780" lon="-2.0236804336"><ele>142.41</ele><time>2013-12-04T11:29:03Z</time></trkpt><trkpt lat="51.9624925777" lon="-2.0237412024"><ele>144.82</ele><time>2013-12-04T11:29:21Z</time></trkpt><trkpt lat="51.9622890651" lon="-2.0238251891"><ele>148.18</ele><time>2013-12-04T11:29:41Z</time></trkpt><trkpt lat="51.9620422181" lon="-2.0240195654"><ele>150.10</ele><time>2013-12-04T11:30:03Z</time></trkpt><trkpt lat="51.9618347660" lon="-2.0241908915"><ele>153.47</ele><time>2013-12-04T11:30:18Z</time></trkpt><trkpt lat="51.9616589136" lon="-2.0243948232"><ele>155.87</ele><time>2013-12-04T11:30:38Z</time></trkpt><trkpt lat="51.9615960494" lon="-2.0245118346"><ele>158.27</ele><time>2013-12-04T11:30:56Z</time></trkpt><trkpt lat="51.9615812134" lon="-2.0246040355"><ele>158.75</ele><time>2013-12-04T11:31:22Z</time></trkpt><trkpt lat="51.9615728315" lon="-2.0246595237"><ele>160.68</ele><time>2013-12-04T11:31:32Z</time></trkpt><trkpt lat="51.9615488593" lon="-2.0247561671"><ele>160.68</ele><time>2013-12-04T11:31:47Z</time></trkpt><trkpt lat="51.9615797047" lon="-2.0247647166"><ele>160.68</ele><time>2013-12-04T11:32:03Z</time></trkpt><trkpt lat="51.9615853205" lon="-2.0247580111"><ele>160.68</ele><time>2013-12-04T11:32:04Z</time></trkpt><trkpt lat="51.9617166650" lon="-2.0246952306"><ele>160.68</ele><time>2013-12-04T11:32:18Z</time></trkpt><trkpt lat="51.9618326705" lon="-2.0246353839"><ele>160.20</ele><time>2013-12-04T11:32:36Z</time></trkpt><trkpt lat="51.9618378673" lon="-2.0246290974"><ele>159.72</ele><time>2013-12-04T11:32:57Z</time></trkpt><trkpt lat="51.9618379511" lon="-2.0246329531"><ele>160.20</ele><time>2013-12-04T11:33:24Z</time></trkpt><trkpt lat="51.9618228637" lon="-2.0246301871"><ele>160.20</ele><time>2013-12-04T11:33:50Z</time></trkpt><trkpt lat="51.9617368653" lon="-2.0246880222"><ele>160.20</ele><time>2013-12-04T11:34:02Z</time></trkpt><trkpt lat="51.9617030863" lon="-2.0246953145"><ele>160.68</ele><time>2013-12-04T11:34:07Z</time></trkpt><trkpt lat="51.9616603386" lon="-2.0247119106"><ele>160.20</ele><time>2013-12-04T11:34:11Z</time></trkpt><trkpt lat="51.9615567382" lon="-2.0247647166"><ele>160.68</ele><time>2013-12-04T11:34:24Z</time></trkpt><trkpt lat="51.9615509547" lon="-2.0247642975"><ele>160.20</ele><time>2013-12-04T11:34:41Z</time></trkpt><trkpt lat="51.9615512900" lon="-2.0247812290"><ele>160.68</ele><time>2013-12-04T11:35:01Z</time></trkpt><trkpt lat="51.9615232106" lon="-2.0248316042"><ele>161.16</ele><time>2013-12-04T11:35:17Z</time></trkpt><trkpt lat="51.9614272378" lon="-2.0248790458"><ele>161.64</ele><time>2013-12-04T11:35:25Z</time></trkpt><trkpt lat="51.9613183569" lon="-2.0249661338"><ele>163.08</ele><time>2013-12-04T11:35:40Z</time></trkpt><trkpt lat="51.9612598512" lon="-2.0249797963"><ele>164.52</ele><time>2013-12-04T11:35:52Z</time></trkpt><trkpt lat="51.9612174388" lon="-2.0249990746"><ele>165.96</ele><time>2013-12-04T11:36:06Z</time></trkpt><trkpt lat="51.9610907044" lon="-2.0249868371"><ele>166.93</ele><time>2013-12-04T11:36:20Z</time></trkpt><trkpt lat="51.9609674904" lon="-2.0249498729"><ele>169.33</ele><time>2013-12-04T11:36:34Z</time></trkpt><trkpt lat="51.9608578552" lon="-2.0249389764"><ele>170.77</ele><time>2013-12-04T11:36:47Z</time></trkpt><trkpt lat="51.9607614633" lon="-2.0249461010"><ele>172.69</ele><time>2013-12-04T11:37:00Z</time></trkpt><trkpt lat="51.9606820866" lon="-2.0249347016"><ele>174.62</ele><time>2013-12-04T11:37:14Z</time></trkpt><trkpt lat="51.9605928194" lon="-2.0249393955"><ele>176.54</ele><time>2013-12-04T11:37:29Z</time></trkpt><trkpt lat="51.9605380856" lon="-2.0249336958"><ele>177.50</ele><time>2013-12-04T11:37:36Z</time></trkpt><trkpt lat="51.9605121017" lon="-2.0249568298"><ele>177.50</ele><time>2013-12-04T11:37:48Z</time></trkpt><trkpt lat="51.9605096709" lon="-2.0249582548"><ele>177.98</ele><time>2013-12-04T11:38:03Z</time></trkpt><trkpt lat="51.9605103415" lon="-2.0249560755"><ele>182.79</ele><time>2013-12-04T11:38:20Z</time></trkpt><trkpt lat="51.9605104253" lon="-2.0249559917"><ele>177.98</ele><time>2013-12-04T11:38:21Z</time></trkpt><trkpt lat="51.9605050609" lon="-2.0249531418"><ele>183.27</ele><time>2013-12-04T11:38:36Z</time></trkpt><trkpt lat="51.9605050609" lon="-2.0249532256"><ele>177.02</ele><time>2013-12-04T11:38:37Z</time></trkpt><trkpt lat="51.9605116826" lon="-2.0249635354"><ele>180.38</ele><time>2013-12-04T11:38:40Z</time></trkpt><trkpt lat="51.9605157059" lon="-2.0249701571"><ele>178.46</ele><time>2013-12-04T11:38:41Z</time></trkpt><trkpt lat="51.9605639856" lon="-2.0249719173"><ele>177.98</ele><time>2013-12-04T11:39:00Z</time></trkpt><trkpt lat="51.9605157897" lon="-2.0249777008"><ele>177.98</ele><time>2013-12-04T11:39:20Z</time></trkpt><trkpt lat="51.9604996126" lon="-2.0249669719"><ele>177.98</ele><time>2013-12-04T11:39:37Z</time></trkpt><trkpt lat="51.9604742154" lon="-2.0249509625"><ele>177.98</ele><time>2013-12-04T11:40:03Z</time></trkpt><trkpt lat="51.9604133628" lon="-2.0249602664"><ele>179.90</ele><time>2013-12-04T11:40:13Z</time></trkpt><trkpt lat="51.9604021311" lon="-2.0249637030"><ele>179.90</ele><time>2013-12-04T11:40:14Z</time></trkpt><trkpt lat="51.9603861216" lon="-2.0249671396"><ele>179.90</ele><time>2013-12-04T11:40:18Z</time></trkpt><trkpt lat="51.9603541028" lon="-2.0249632839"><ele>180.38</ele><time>2013-12-04T11:40:23Z</time></trkpt><trkpt lat="51.9602850359" lon="-2.0249489509"><ele>180.87</ele><time>2013-12-04T11:40:29Z</time></trkpt><trkpt lat="51.9601970259" lon="-2.0249869209"><ele>184.23</ele><time>2013-12-04T11:40:36Z</time></trkpt><trkpt lat="51.9601364248" lon="-2.0250081271"><ele>184.71</ele><time>2013-12-04T11:40:43Z</time></trkpt><trkpt lat="51.9599941839" lon="-2.0250182692"><ele>186.63</ele><time>2013-12-04T11:40:59Z</time></trkpt><trkpt lat="51.9599403720" lon="-2.0249887649"><ele>188.56</ele><time>2013-12-04T11:41:12Z</time></trkpt><trkpt lat="51.9598872308" lon="-2.0249960572"><ele>189.52</ele><time>2013-12-04T11:41:25Z</time></trkpt><trkpt lat="51.9597939402" lon="-2.0249678101"><ele>190.96</ele><time>2013-12-04T11:41:42Z</time></trkpt><trkpt lat="51.9597535394" lon="-2.0249713305"><ele>192.88</ele><time>2013-12-04T11:41:59Z</time></trkpt><trkpt lat="51.9597077742" lon="-2.0250033494"><ele>193.84</ele><time>2013-12-04T11:42:15Z</time></trkpt><trkpt lat="51.9596542139" lon="-2.0250022598"><ele>194.32</ele><time>2013-12-04T11:42:20Z</time></trkpt><trkpt lat="51.9596095383" lon="-2.0249854960"><ele>194.32</ele><time>2013-12-04T11:42:23Z</time></trkpt><trkpt lat="51.9595150743" lon="-2.0249730907"><ele>196.25</ele><time>2013-12-04T11:42:32Z</time></trkpt><trkpt lat="51.9594194368" lon="-2.0250168443"><ele>199.13</ele><time>2013-12-04T11:42:47Z</time></trkpt><trkpt lat="51.9593423232" lon="-2.0250065345"><ele>198.17</ele><time>2013-12-04T11:42:55Z</time></trkpt><trkpt lat="51.9592147507" lon="-2.0250012539"><ele>200.09</ele><time>2013-12-04T11:43:08Z</time></trkpt><trkpt lat="51.9591485336" lon="-2.0249896869"><ele>201.05</ele><time>2013-12-04T11:43:14Z</time></trkpt><trkpt lat="51.9591005892" lon="-2.0249580033"><ele>202.98</ele><time>2013-12-04T11:43:18Z</time></trkpt><trkpt lat="51.9590053707" lon="-2.0249638706"><ele>205.38</ele><time>2013-12-04T11:43:26Z</time></trkpt><trkpt lat="51.9589878526" lon="-2.0249582548"><ele>205.38</ele><time>2013-12-04T11:43:28Z</time></trkpt><trkpt lat="51.9588362239" lon="-2.0249288343"><ele>207.78</ele><time>2013-12-04T11:43:42Z</time></trkpt><trkpt lat="51.9587655645" lon="-2.0248746872"><ele>208.26</ele><time>2013-12-04T11:43:58Z</time></trkpt><trkpt lat="51.9587510638" lon="-2.0248663891"><ele>208.74</ele><time>2013-12-04T11:44:24Z</time></trkpt><trkpt lat="51.9587522373" lon="-2.0248673111"><ele>208.74</ele><time>2013-12-04T11:44:54Z</time></trkpt><trkpt lat="51.9587561768" lon="-2.0248687360"><ele>208.74</ele><time>2013-12-04T11:45:13Z</time></trkpt><trkpt lat="51.9587605353" lon="-2.0248724241"><ele>208.26</ele><time>2013-12-04T11:45:30Z</time></trkpt><trkpt lat="51.9587643072" lon="-2.0248746034"><ele>209.70</ele><time>2013-12-04T11:45:58Z</time></trkpt><trkpt lat="51.9587671570" lon="-2.0248747710"><ele>208.74</ele><time>2013-12-04T11:46:28Z</time></trkpt><trkpt lat="51.9587658159" lon="-2.0248800516"><ele>208.26</ele><time>2013-12-04T11:46:58Z</time></trkpt><trkpt lat="51.9587653968" lon="-2.0248846617"><ele>208.74</ele><time>2013-12-04T11:47:25Z</time></trkpt><trkpt lat="51.9587624632" lon="-2.0248890202"><ele>208.74</ele><time>2013-12-04T11:47:55Z</time></trkpt><trkpt lat="51.9587642234" lon="-2.0248973183"><ele>208.74</ele><time>2013-12-04T11:48:15Z</time></trkpt><trkpt lat="51.9587643072" lon="-2.0249079634"><ele>208.26</ele><time>2013-12-04T11:48:40Z</time></trkpt><trkpt lat="51.9587658998" lon="-2.0249098912"><ele>208.74</ele><time>2013-12-04T11:49:05Z</time></trkpt><trkpt lat="51.9587718509" lon="-2.0249103103"><ele>209.22</ele><time>2013-12-04T11:49:22Z</time></trkpt><trkpt lat="51.9587704260" lon="-2.0249190275"><ele>208.74</ele><time>2013-12-04T11:49:49Z</time></trkpt><trkpt lat="51.9587708451" lon="-2.0249175187"><ele>208.74</ele><time>2013-12-04T11:50:13Z</time></trkpt><trkpt lat="51.9587685820" lon="-2.0249243081"><ele>208.74</ele><time>2013-12-04T11:50:35Z</time></trkpt><trkpt lat="51.9587752875" lon="-2.0249135792"><ele>208.74</ele><time>2013-12-04T11:50:50Z</time></trkpt><trkpt lat="51.9587696716" lon="-2.0249147527"><ele>209.22</ele><time>2013-12-04T11:50:56Z</time></trkpt><trkpt lat="51.9587289356" lon="-2.0249119028"><ele>209.22</ele><time>2013-12-04T11:51:00Z</time></trkpt><trkpt lat="51.9586545881" lon="-2.0248942170"><ele>210.19</ele><time>2013-12-04T11:51:08Z</time></trkpt><trkpt lat="51.9586195517" lon="-2.0248239767"><ele>210.67</ele><time>2013-12-04T11:51:22Z</time></trkpt><trkpt lat="51.9585719425" lon="-2.0247793850"><ele>211.15</ele><time>2013-12-04T11:51:32Z</time></trkpt><trkpt lat="51.9585239980" lon="-2.0246852562"><ele>211.63</ele><time>2013-12-04T11:51:43Z</time></trkpt><trkpt lat="51.9585043844" lon="-2.0246124174"><ele>211.63</ele><time>2013-12-04T11:51:50Z</time></trkpt><trkpt lat="51.9584514946" lon="-2.0245265868"><ele>212.59</ele><time>2013-12-04T11:51:58Z</time></trkpt><trkpt lat="51.9583880436" lon="-2.0244096592"><ele>213.07</ele><time>2013-12-04T11:52:12Z</time></trkpt><trkpt lat="51.9583415240" lon="-2.0243265107"><ele>213.55</ele><time>2013-12-04T11:52:21Z</time></trkpt><trkpt lat="51.9582469761" lon="-2.0241104253"><ele>215.47</ele><time>2013-12-04T11:52:36Z</time></trkpt><trkpt lat="51.9581952598" lon="-2.0240242593"><ele>214.99</ele><time>2013-12-04T11:52:50Z</time></trkpt><trkpt lat="51.9580946770" lon="-2.0239220839"><ele>215.95</ele><time>2013-12-04T11:53:03Z</time></trkpt><trkpt lat="51.9580329861" lon="-2.0238158014"><ele>216.43</ele><time>2013-12-04T11:53:13Z</time></trkpt><trkpt lat="51.9579956867" lon="-2.0237732213"><ele>215.95</ele><time>2013-12-04T11:53:18Z</time></trkpt><trkpt lat="51.9579317328" lon="-2.0236719679"><ele>216.91</ele><time>2013-12-04T11:53:31Z</time></trkpt><trkpt lat="51.9578578882" lon="-2.0235450659"><ele>217.88</ele><time>2013-12-04T11:53:43Z</time></trkpt><trkpt lat="51.9578375202" lon="-2.0235158131"><ele>217.40</ele><time>2013-12-04T11:53:45Z</time></trkpt><trkpt lat="51.9577319920" lon="-2.0233660284"><ele>218.36</ele><time>2013-12-04T11:54:01Z</time></trkpt><trkpt lat="51.9576128013" lon="-2.0232698880"><ele>218.84</ele><time>2013-12-04T11:54:16Z</time></trkpt><trkpt lat="51.9575069379" lon="-2.0231802016"><ele>220.28</ele><time>2013-12-04T11:54:27Z</time></trkpt><trkpt lat="51.9574474264" lon="-2.0231473446"><ele>220.76</ele><time>2013-12-04T11:54:35Z</time></trkpt><trkpt lat="51.9573100470" lon="-2.0230705664"><ele>222.20</ele><time>2013-12-04T11:54:49Z</time></trkpt><trkpt lat="51.9572362024" lon="-2.0230442472"><ele>222.68</ele><time>2013-12-04T11:54:58Z</time></trkpt><trkpt lat="51.9571112283" lon="-2.0229563210"><ele>223.16</ele><time>2013-12-04T11:55:11Z</time></trkpt><trkpt lat="51.9570716657" lon="-2.0229217876"><ele>223.16</ele><time>2013-12-04T11:55:18Z</time></trkpt><trkpt lat="51.9569872599" lon="-2.0228425786"><ele>223.64</ele><time>2013-12-04T11:55:29Z</time></trkpt><trkpt lat="51.9568864256" lon="-2.0227645431"><ele>225.09</ele><time>2013-12-04T11:55:42Z</time></trkpt><trkpt lat="51.9568100665" lon="-2.0226839092"><ele>225.09</ele><time>2013-12-04T11:55:53Z</time></trkpt><trkpt lat="51.9566959050" lon="-2.0226100646"><ele>226.05</ele><time>2013-12-04T11:56:04Z</time></trkpt><trkpt lat="51.9566037878" lon="-2.0225476194"><ele>227.01</ele><time>2013-12-04T11:56:14Z</time></trkpt><trkpt lat="51.9564980082" lon="-2.0224729367"><ele>227.01</ele><time>2013-12-04T11:56:25Z</time></trkpt><trkpt lat="51.9564187992" lon="-2.0224265009"><ele>227.49</ele><time>2013-12-04T11:56:35Z</time></trkpt><trkpt lat="51.9563804939" lon="-2.0223779697"><ele>228.45</ele><time>2013-12-04T11:56:47Z</time></trkpt><trkpt lat="51.9563947432" lon="-2.0223757066"><ele>227.97</ele><time>2013-12-04T11:57:12Z</time></trkpt><trkpt lat="51.9563870318" lon="-2.0223334618"><ele>227.97</ele><time>2013-12-04T11:57:29Z</time></trkpt><trkpt lat="51.9563836791" lon="-2.0223340485"><ele>227.97</ele><time>2013-12-04T11:57:58Z</time></trkpt><trkpt lat="51.9563816674" lon="-2.0223419275"><ele>227.49</ele><time>2013-12-04T11:58:25Z</time></trkpt><trkpt lat="51.9563321304" lon="-2.0223431010"><ele>227.01</ele><time>2013-12-04T11:58:43Z</time></trkpt><trkpt lat="51.9561903924" lon="-2.0222292747"><ele>226.53</ele><time>2013-12-04T11:58:57Z</time></trkpt><trkpt lat="51.9561540987" lon="-2.0221174601"><ele>227.01</ele><time>2013-12-04T11:59:10Z</time></trkpt><trkpt lat="51.9561546016" lon="-2.0220627263"><ele>227.01</ele><time>2013-12-04T11:59:25Z</time></trkpt><trkpt lat="51.9561254326" lon="-2.0220217388"><ele>226.53</ele><time>2013-12-04T11:59:46Z</time></trkpt><trkpt lat="51.9561360776" lon="-2.0219751354"><ele>227.01</ele><time>2013-12-04T12:00:18Z</time></trkpt><trkpt lat="51.9561355747" lon="-2.0219718665"><ele>226.53</ele><time>2013-12-04T12:00:24Z</time></trkpt><trkpt lat="51.9561105128" lon="-2.0219417755"><ele>226.53</ele><time>2013-12-04T12:00:28Z</time></trkpt><trkpt lat="51.9559860416" lon="-2.0218820963"><ele>226.05</ele><time>2013-12-04T12:00:42Z</time></trkpt><trkpt lat="51.9558720477" lon="-2.0218303800"><ele>225.57</ele><time>2013-12-04T12:00:52Z</time></trkpt><trkpt lat="51.9558058307" lon="-2.0217373408"><ele>226.05</ele><time>2013-12-04T12:01:01Z</time></trkpt><trkpt lat="51.9557316508" lon="-2.0216241851"><ele>225.57</ele><time>2013-12-04T12:01:17Z</time></trkpt><trkpt lat="51.9557453133" lon="-2.0215859637"><ele>225.09</ele><time>2013-12-04T12:01:36Z</time></trkpt><trkpt lat="51.9557583891" lon="-2.0215773303"><ele>220.76</ele><time>2013-12-04T12:01:53Z</time></trkpt><trkpt lat="51.9557583053" lon="-2.0215765759"><ele>226.05</ele><time>2013-12-04T12:01:54Z</time></trkpt><trkpt lat="51.9557631668" lon="-2.0215591416"><ele>226.05</ele><time>2013-12-04T12:02:16Z</time></trkpt><trkpt lat="51.9557402842" lon="-2.0215218421"><ele>225.57</ele><time>2013-12-04T12:02:36Z</time></trkpt><trkpt lat="51.9556827005" lon="-2.0214785915"><ele>225.57</ele><time>2013-12-04T12:02:45Z</time></trkpt><trkpt lat="51.9555953611" lon="-2.0213740692"><ele>224.61</ele><time>2013-12-04T12:02:54Z</time></trkpt><trkpt lat="51.9555000588" lon="-2.0212691277"><ele>224.12</ele><time>2013-12-04T12:03:08Z</time></trkpt><trkpt lat="51.9553864002" lon="-2.0211749990"><ele>225.09</ele><time>2013-12-04T12:03:20Z</time></trkpt><trkpt lat="51.9553529564" lon="-2.0211194269"><ele>225.09</ele><time>2013-12-04T12:03:27Z</time></trkpt><trkpt lat="51.9552857336" lon="-2.0210486837"><ele>224.12</ele><time>2013-12-04T12:03:36Z</time></trkpt><trkpt lat="51.9552453328" lon="-2.0209965482"><ele>223.64</ele><time>2013-12-04T12:03:42Z</time></trkpt><trkpt lat="51.9551809598" lon="-2.0209206082"><ele>224.12</ele><time>2013-12-04T12:03:51Z</time></trkpt><trkpt lat="51.9550848193" lon="-2.0208274014"><ele>225.09</ele><time>2013-12-04T12:04:00Z</time></trkpt><trkpt lat="51.9550089631" lon="-2.0207502879"><ele>224.12</ele><time>2013-12-04T12:04:09Z</time></trkpt><trkpt lat="51.9549212046" lon="-2.0206597634"><ele>223.64</ele><time>2013-12-04T12:04:18Z</time></trkpt><trkpt lat="51.9548300933" lon="-2.0205063745"><ele>223.64</ele><time>2013-12-04T12:04:30Z</time></trkpt><trkpt lat="51.9547397364" lon="-2.0204081386"><ele>223.64</ele><time>2013-12-04T12:04:42Z</time></trkpt><trkpt lat="51.9547448494" lon="-2.0204176940"><ele>222.68</ele><time>2013-12-04T12:04:47Z</time></trkpt><trkpt lat="51.9547143392" lon="-2.0204021037"><ele>222.68</ele><time>2013-12-04T12:04:51Z</time></trkpt><trkpt lat="51.9546146784" lon="-2.0202459488"><ele>222.20</ele><time>2013-12-04T12:05:04Z</time></trkpt><trkpt lat="51.9546019379" lon="-2.0202189591"><ele>222.68</ele><time>2013-12-04T12:05:07Z</time></trkpt><trkpt lat="51.9545143470" lon="-2.0199885406"><ele>222.20</ele><time>2013-12-04T12:05:23Z</time></trkpt><trkpt lat="51.9544531591" lon="-2.0198704395"><ele>222.68</ele><time>2013-12-04T12:05:31Z</time></trkpt><trkpt lat="51.9543570187" lon="-2.0196986943"><ele>222.20</ele><time>2013-12-04T12:05:45Z</time></trkpt><trkpt lat="51.9543107506" lon="-2.0196240954"><ele>222.20</ele><time>2013-12-04T12:06:02Z</time></trkpt><trkpt lat="51.9542872813" lon="-2.0195530169"><ele>222.68</ele><time>2013-12-04T12:06:17Z</time></trkpt><trkpt lat="51.9541892968" lon="-2.0193661842"><ele>223.64</ele><time>2013-12-04T12:06:32Z</time></trkpt><trkpt lat="51.9541224930" lon="-2.0191905834"><ele>225.57</ele><time>2013-12-04T12:06:44Z</time></trkpt><trkpt lat="51.9541065674" lon="-2.0191515237"><ele>225.09</ele><time>2013-12-04T12:06:47Z</time></trkpt><trkpt lat="51.9540910609" lon="-2.0190675370"><ele>225.09</ele><time>2013-12-04T12:06:52Z</time></trkpt><trkpt lat="51.9540347345" lon="-2.0189408027"><ele>226.53</ele><time>2013-12-04T12:07:02Z</time></trkpt><trkpt lat="51.9539640751" lon="-2.0188099612"><ele>227.01</ele><time>2013-12-04T12:07:14Z</time></trkpt><trkpt lat="51.9539460540" lon="-2.0187365357"><ele>227.49</ele><time>2013-12-04T12:07:27Z</time></trkpt><trkpt lat="51.9539447967" lon="-2.0187136531"><ele>227.49</ele><time>2013-12-04T12:07:54Z</time></trkpt><trkpt lat="51.9539292064" lon="-2.0186894294"><ele>227.97</ele><time>2013-12-04T12:08:05Z</time></trkpt><trkpt lat="51.9538505003" lon="-2.0185878407"><ele>228.45</ele><time>2013-12-04T12:08:17Z</time></trkpt><trkpt lat="51.9538180623" lon="-2.0185325202"><ele>228.45</ele><time>2013-12-04T12:08:36Z</time></trkpt><trkpt lat="51.9538206607" lon="-2.0185129903"><ele>228.93</ele><time>2013-12-04T12:08:40Z</time></trkpt><trkpt lat="51.9538301323" lon="-2.0184236392"><ele>228.45</ele><time>2013-12-04T12:08:59Z</time></trkpt><trkpt lat="51.9537936710" lon="-2.0184460189"><ele>228.93</ele><time>2013-12-04T12:09:06Z</time></trkpt><trkpt lat="51.9536495022" lon="-2.0185196120"><ele>229.89</ele><time>2013-12-04T12:09:20Z</time></trkpt><trkpt lat="51.9536336605" lon="-2.0185300056"><ele>229.89</ele><time>2013-12-04T12:09:21Z</time></trkpt><trkpt lat="51.9534636755" lon="-2.0185538102"><ele>230.37</ele><time>2013-12-04T12:09:35Z</time></trkpt><trkpt lat="51.9534483366" lon="-2.0185569115"><ele>230.37</ele><time>2013-12-04T12:09:38Z</time></trkpt><trkpt lat="51.9533500168" lon="-2.0185931213"><ele>230.85</ele><time>2013-12-04T12:09:50Z</time></trkpt><trkpt lat="51.9532419741" lon="-2.0186627749"><ele>232.30</ele><time>2013-12-04T12:10:02Z</time></trkpt><trkpt lat="51.9530926086" lon="-2.0187644474"><ele>232.78</ele><time>2013-12-04T12:10:17Z</time></trkpt><trkpt lat="51.9530615117" lon="-2.0188118052"><ele>233.26</ele><time>2013-12-04T12:10:21Z</time></trkpt><trkpt lat="51.9529706519" lon="-2.0189325884"><ele>233.74</ele><time>2013-12-04T12:10:31Z</time></trkpt><trkpt lat="51.9528189395" lon="-2.0190810319"><ele>234.22</ele><time>2013-12-04T12:10:45Z</time></trkpt><trkpt lat="51.9527204521" lon="-2.0192019828"><ele>235.18</ele><time>2013-12-04T12:10:56Z</time></trkpt><trkpt lat="51.9526110683" lon="-2.0193046611"><ele>236.14</ele><time>2013-12-04T12:11:06Z</time></trkpt><trkpt lat="51.9525725953" lon="-2.0193710458"><ele>236.62</ele><time>2013-12-04T12:11:12Z</time></trkpt><trkpt lat="51.9524636306" lon="-2.0194417890"><ele>237.10</ele><time>2013-12-04T12:11:23Z</time></trkpt><trkpt lat="51.9523945637" lon="-2.0195762347"><ele>237.58</ele><time>2013-12-04T12:11:33Z</time></trkpt><trkpt lat="51.9522976689" lon="-2.0196846966"><ele>238.54</ele><time>2013-12-04T12:11:44Z</time></trkpt><trkpt lat="51.9521900453" lon="-2.0198398456"><ele>239.99</ele><time>2013-12-04T12:11:57Z</time></trkpt><trkpt lat="51.9520827569" lon="-2.0199683402"><ele>240.47</ele><time>2013-12-04T12:12:11Z</time></trkpt><trkpt lat="51.9519706909" lon="-2.0200687554"><ele>240.47</ele><time>2013-12-04T12:12:23Z</time></trkpt><trkpt lat="51.9518459681" lon="-2.0201946516"><ele>241.91</ele><time>2013-12-04T12:12:36Z</time></trkpt><trkpt lat="51.9518285338" lon="-2.0202157740"><ele>241.91</ele><time>2013-12-04T12:12:38Z</time></trkpt><trkpt lat="51.9517132826" lon="-2.0202923845"><ele>241.91</ele><time>2013-12-04T12:12:49Z</time></trkpt><trkpt lat="51.9515831955" lon="-2.0203818195"><ele>242.87</ele><time>2013-12-04T12:13:02Z</time></trkpt><trkpt lat="51.9514746498" lon="-2.0204418339"><ele>243.83</ele><time>2013-12-04T12:13:13Z</time></trkpt><trkpt lat="51.9514324050" lon="-2.0204385649"><ele>243.83</ele><time>2013-12-04T12:13:18Z</time></trkpt><trkpt lat="51.9513927586" lon="-2.0204643812"><ele>243.35</ele><time>2013-12-04T12:13:22Z</time></trkpt><trkpt lat="51.9512840454" lon="-2.0205278322"><ele>243.83</ele><time>2013-12-04T12:13:34Z</time></trkpt><trkpt lat="51.9511999749" lon="-2.0205806382"><ele>244.79</ele><time>2013-12-04T12:13:41Z</time></trkpt><trkpt lat="51.9511474203" lon="-2.0205625333"><ele>244.79</ele><time>2013-12-04T12:13:52Z</time></trkpt><trkpt lat="51.9511771761" lon="-2.0205418300"><ele>244.79</ele><time>2013-12-04T12:14:03Z</time></trkpt><trkpt lat="51.9511523657" lon="-2.0205911156"><ele>245.27</ele><time>2013-12-04T12:14:08Z</time></trkpt><trkpt lat="51.9510480110" lon="-2.0206385572"><ele>245.27</ele><time>2013-12-04T12:14:17Z</time></trkpt><trkpt lat="51.9509605877" lon="-2.0206845738"><ele>245.75</ele><time>2013-12-04T12:14:24Z</time></trkpt><trkpt lat="51.9509377889" lon="-2.0206703246"><ele>245.75</ele><time>2013-12-04T12:14:28Z</time></trkpt><trkpt lat="51.9509138167" lon="-2.0206581708"><ele>245.75</ele><time>2013-12-04T12:14:32Z</time></trkpt><trkpt lat="51.9507592544" lon="-2.0206870884"><ele>245.75</ele><time>2013-12-04T12:14:44Z</time></trkpt><trkpt lat="51.9506363757" lon="-2.0206815563"><ele>246.72</ele><time>2013-12-04T12:14:54Z</time></trkpt><trkpt lat="51.9506119844" lon="-2.0206719171"><ele>246.23</ele><time>2013-12-04T12:14:57Z</time></trkpt><trkpt lat="51.9504917040" lon="-2.0206385572"><ele>246.72</ele><time>2013-12-04T12:15:07Z</time></trkpt><trkpt lat="51.9504183624" lon="-2.0206364617"><ele>246.23</ele><time>2013-12-04T12:15:16Z</time></trkpt><trkpt lat="51.9502938073" lon="-2.0206065383"><ele>246.72</ele><time>2013-12-04T12:15:26Z</time></trkpt><trkpt lat="51.9502643868" lon="-2.0205954742"><ele>247.20</ele><time>2013-12-04T12:15:28Z</time></trkpt><trkpt lat="51.9501451124" lon="-2.0205515530"><ele>247.20</ele><time>2013-12-04T12:15:40Z</time></trkpt><trkpt lat="51.9500689209" lon="-2.0205191988"><ele>247.20</ele><time>2013-12-04T12:15:50Z</time></trkpt><trkpt lat="51.9500245806" lon="-2.0204962324"><ele>246.72</ele><time>2013-12-04T12:16:01Z</time></trkpt><trkpt lat="51.9498928171" lon="-2.0204518083"><ele>247.20</ele><time>2013-12-04T12:16:11Z</time></trkpt><trkpt lat="51.9498203136" lon="-2.0204000920"><ele>248.16</ele><time>2013-12-04T12:16:20Z</time></trkpt><trkpt lat="51.9497877918" lon="-2.0203825738"><ele>247.20</ele><time>2013-12-04T12:16:38Z</time></trkpt><trkpt lat="51.9497592095" lon="-2.0203628764"><ele>248.16</ele><time>2013-12-04T12:16:52Z</time></trkpt><trkpt lat="51.9497038051" lon="-2.0203146804"><ele>246.72</ele><time>2013-12-04T12:16:58Z</time></trkpt><trkpt lat="51.9496626500" lon="-2.0202964917"><ele>247.20</ele><time>2013-12-04T12:17:02Z</time></trkpt><trkpt lat="51.9495541882" lon="-2.0202168636"><ele>245.75</ele><time>2013-12-04T12:17:14Z</time></trkpt><trkpt lat="51.9495458063" lon="-2.0202097390"><ele>245.75</ele><time>2013-12-04T12:17:15Z</time></trkpt><trkpt lat="51.9494642504" lon="-2.0201368164"><ele>245.75</ele><time>2013-12-04T12:17:24Z</time></trkpt><trkpt lat="51.9493402820" lon="-2.0201190468"><ele>246.23</ele><time>2013-12-04T12:17:36Z</time></trkpt><trkpt lat="51.9493179023" lon="-2.0201201364"><ele>245.75</ele><time>2013-12-04T12:17:38Z</time></trkpt><trkpt lat="51.9492530264" lon="-2.0201106649"><ele>246.23</ele><time>2013-12-04T12:17:55Z</time></trkpt><trkpt lat="51.9492186606" lon="-2.0200966671"><ele>246.23</ele><time>2013-12-04T12:18:02Z</time></trkpt><trkpt lat="51.9491892401" lon="-2.0200713538"><ele>245.27</ele><time>2013-12-04T12:18:04Z</time></trkpt><trkpt lat="51.9491276331" lon="-2.0200156141"><ele>245.27</ele><time>2013-12-04T12:18:10Z</time></trkpt><trkpt lat="51.9490612485" lon="-2.0199647360"><ele>245.27</ele><time>2013-12-04T12:18:17Z</time></trkpt><trkpt lat="51.9489807822" lon="-2.0198951662"><ele>244.79</ele><time>2013-12-04T12:18:25Z</time></trkpt><trkpt lat="51.9489315804" lon="-2.0198029652"><ele>244.31</ele><time>2013-12-04T12:18:32Z</time></trkpt><trkpt lat="51.9488752540" lon="-2.0197327249"><ele>243.83</ele><time>2013-12-04T12:18:40Z</time></trkpt><trkpt lat="51.9488462526" lon="-2.0197180565"><ele>243.83</ele><time>2013-12-04T12:18:42Z</time></trkpt><trkpt lat="51.9487896748" lon="-2.0196834393"><ele>243.35</ele><time>2013-12-04T12:18:47Z</time></trkpt><trkpt lat="51.9486975577" lon="-2.0196100138"><ele>243.83</ele><time>2013-12-04T12:18:55Z</time></trkpt><trkpt lat="51.9485875871" lon="-2.0195212495"><ele>243.35</ele><time>2013-12-04T12:19:04Z</time></trkpt><trkpt lat="51.9485455099" lon="-2.0194628276"><ele>243.35</ele><time>2013-12-04T12:19:08Z</time></trkpt><trkpt lat="51.9485144131" lon="-2.0194434654"><ele>242.39</ele><time>2013-12-04T12:19:11Z</time></trkpt><trkpt lat="51.9484259840" lon="-2.0193349198"><ele>242.87</ele><time>2013-12-04T12:19:21Z</time></trkpt><trkpt lat="51.9483884331" lon="-2.0193067566"><ele>241.91</ele><time>2013-12-04T12:19:24Z</time></trkpt><trkpt lat="51.9483016804" lon="-2.0191940200"><ele>241.43</ele><time>2013-12-04T12:19:33Z</time></trkpt><trkpt lat="51.9482643809" lon="-2.0191776752"><ele>241.91</ele><time>2013-12-04T12:19:39Z</time></trkpt><trkpt lat="51.9482291769" lon="-2.0191324130"><ele>242.39</ele><time>2013-12-04T12:19:44Z</time></trkpt><trkpt lat="51.9481983315" lon="-2.0191075187"><ele>241.43</ele><time>2013-12-04T12:19:47Z</time></trkpt><trkpt lat="51.9481037837" lon="-2.0189599972"><ele>241.43</ele><time>2013-12-04T12:19:57Z</time></trkpt><trkpt lat="51.9480830804" lon="-2.0189430658"><ele>241.43</ele><time>2013-12-04T12:19:59Z</time></trkpt><trkpt lat="51.9480392430" lon="-2.0188745856"><ele>241.43</ele><time>2013-12-04T12:20:05Z</time></trkpt><trkpt lat="51.9480238203" lon="-2.0188599173"><ele>240.95</ele><time>2013-12-04T12:20:07Z</time></trkpt><trkpt lat="51.9479757082" lon="-2.0187743381"><ele>240.47</ele><time>2013-12-04T12:20:14Z</time></trkpt><trkpt lat="51.9478286896" lon="-2.0186522976"><ele>239.51</ele><time>2013-12-04T12:20:27Z</time></trkpt><trkpt lat="51.9477882050" lon="-2.0185921993"><ele>239.51</ele><time>2013-12-04T12:20:33Z</time></trkpt><trkpt lat="51.9477504864" lon="-2.0185704064"><ele>239.51</ele><time>2013-12-04T12:20:36Z</time></trkpt><trkpt lat="51.9476742111" lon="-2.0184902754"><ele>239.51</ele><time>2013-12-04T12:20:44Z</time></trkpt><trkpt lat="51.9476612192" lon="-2.0184746012"><ele>239.02</ele><time>2013-12-04T12:20:46Z</time></trkpt><trkpt lat="51.9475822616" lon="-2.0183784608"><ele>239.51</ele><time>2013-12-04T12:20:54Z</time></trkpt><trkpt lat="51.9474846963" lon="-2.0182587672"><ele>238.54</ele><time>2013-12-04T12:21:05Z</time></trkpt><trkpt lat="51.9473993685" lon="-2.0181694999"><ele>238.54</ele><time>2013-12-04T12:21:12Z</time></trkpt><trkpt lat="51.9473781623" lon="-2.0181291830"><ele>238.06</ele><time>2013-12-04T12:21:16Z</time></trkpt><trkpt lat="51.9473497476" lon="-2.0180825796"><ele>237.58</ele><time>2013-12-04T12:21:20Z</time></trkpt><trkpt lat="51.9473281223" lon="-2.0180085674"><ele>237.58</ele><time>2013-12-04T12:21:25Z</time></trkpt><trkpt lat="51.9472815190" lon="-2.0179686695"><ele>238.06</ele><time>2013-12-04T12:21:31Z</time></trkpt><trkpt lat="51.9471830316" lon="-2.0178964175"><ele>236.62</ele><time>2013-12-04T12:21:41Z</time></trkpt><trkpt lat="51.9470537826" lon="-2.0177344792"><ele>236.62</ele><time>2013-12-04T12:21:53Z</time></trkpt><trkpt lat="51.9470229372" lon="-2.0177063160"><ele>237.58</ele><time>2013-12-04T12:21:56Z</time></trkpt><trkpt lat="51.9468812831" lon="-2.0175468083"><ele>237.10</ele><time>2013-12-04T12:22:10Z</time></trkpt><trkpt lat="51.9468738232" lon="-2.0175318047"><ele>236.62</ele><time>2013-12-04T12:22:11Z</time></trkpt><trkpt lat="51.9467837177" lon="-2.0174157992"><ele>236.62</ele><time>2013-12-04T12:22:21Z</time></trkpt><trkpt lat="51.9466697238" lon="-2.0173006319"><ele>236.62</ele><time>2013-12-04T12:22:31Z</time></trkpt><trkpt lat="51.9466503616" lon="-2.0172655117"><ele>236.62</ele><time>2013-12-04T12:22:34Z</time></trkpt><trkpt lat="51.9465104677" lon="-2.0171532780"><ele>236.62</ele><time>2013-12-04T12:22:48Z</time></trkpt><trkpt lat="51.9464833941" lon="-2.0171189960"><ele>236.14</ele><time>2013-12-04T12:22:52Z</time></trkpt><trkpt lat="51.9463577494" lon="-2.0169708040"><ele>236.14</ele><time>2013-12-04T12:23:08Z</time></trkpt><trkpt lat="51.9462705776" lon="-2.0169041678"><ele>234.70</ele><time>2013-12-04T12:23:16Z</time></trkpt><trkpt lat="51.9461612776" lon="-2.0167744160"><ele>235.18</ele><time>2013-12-04T12:23:26Z</time></trkpt><trkpt lat="51.9461229723" lon="-2.0166987274"><ele>235.18</ele><time>2013-12-04T12:23:39Z</time></trkpt><trkpt lat="51.9461027719" lon="-2.0166641101"><ele>235.18</ele><time>2013-12-04T12:23:47Z</time></trkpt><trkpt lat="51.9460782129" lon="-2.0166454185"><ele>236.14</ele><time>2013-12-04T12:23:54Z</time></trkpt><trkpt lat="51.9460097328" lon="-2.0166367013"><ele>235.66</ele><time>2013-12-04T12:24:06Z</time></trkpt><trkpt lat="51.9459997583" lon="-2.0166444127"><ele>236.14</ele><time>2013-12-04T12:24:08Z</time></trkpt><trkpt lat="51.9458913803" lon="-2.0166902617"><ele>237.10</ele><time>2013-12-04T12:24:20Z</time></trkpt><trkpt lat="51.9458668213" lon="-2.0166971348"><ele>237.10</ele><time>2013-12-04T12:24:39Z</time></trkpt><trkpt lat="51.9458626304" lon="-2.0166983921"><ele>237.10</ele><time>2013-12-04T12:24:42Z</time></trkpt><trkpt lat="51.9457766321" lon="-2.0167278964"><ele>238.06</ele><time>2013-12-04T12:24:51Z</time></trkpt><trkpt lat="51.9456501491" lon="-2.0168413874"><ele>239.02</ele><time>2013-12-04T12:25:05Z</time></trkpt><trkpt lat="51.9456428569" lon="-2.0168395434"><ele>239.51</ele><time>2013-12-04T12:25:07Z</time></trkpt><trkpt lat="51.9455991033" lon="-2.0168495178"><ele>239.99</ele><time>2013-12-04T12:25:13Z</time></trkpt><trkpt lat="51.9454951677" lon="-2.0168844704"><ele>239.99</ele><time>2013-12-04T12:25:25Z</time></trkpt><trkpt lat="51.9453970995" lon="-2.0168917626"><ele>240.95</ele><time>2013-12-04T12:25:35Z</time></trkpt><trkpt lat="51.9452730473" lon="-2.0169116277"><ele>241.91</ele><time>2013-12-04T12:25:47Z</time></trkpt><trkpt lat="51.9451880548" lon="-2.0169071853"><ele>242.39</ele><time>2013-12-04T12:25:58Z</time></trkpt><trkpt lat="51.9450594764" lon="-2.0169035811"><ele>242.87</ele><time>2013-12-04T12:26:11Z</time></trkpt><trkpt lat="51.9449084345" lon="-2.0169029944"><ele>244.79</ele><time>2013-12-04T12:26:26Z</time></trkpt><trkpt lat="51.9448048342" lon="-2.0169250388"><ele>245.75</ele><time>2013-12-04T12:26:40Z</time></trkpt><trkpt lat="51.9446871523" lon="-2.0169646014"><ele>247.20</ele><time>2013-12-04T12:26:55Z</time></trkpt><trkpt lat="51.9445362780" lon="-2.0170098636"><ele>248.64</ele><time>2013-12-04T12:27:11Z</time></trkpt><trkpt lat="51.9443936180" lon="-2.0170592330"><ele>250.56</ele><time>2013-12-04T12:27:29Z</time></trkpt><trkpt lat="51.9442691468" lon="-2.0170787629"><ele>252.00</ele><time>2013-12-04T12:27:42Z</time></trkpt><trkpt lat="51.9441315159" lon="-2.0171385258"><ele>253.44</ele><time>2013-12-04T12:27:58Z</time></trkpt><trkpt lat="51.9440233056" lon="-2.0171471592"><ele>255.37</ele><time>2013-12-04T12:28:12Z</time></trkpt><trkpt lat="51.9440116547" lon="-2.0171428006"><ele>254.89</ele><time>2013-12-04T12:28:13Z</time></trkpt><trkpt lat="51.9438853394" lon="-2.0173350815"><ele>255.85</ele><time>2013-12-04T12:28:27Z</time></trkpt><trkpt lat="51.9438482914" lon="-2.0173764881"><ele>256.33</ele><time>2013-12-04T12:28:30Z</time></trkpt><trkpt lat="51.9437837508" lon="-2.0174969360"><ele>256.33</ele><time>2013-12-04T12:28:39Z</time></trkpt><trkpt lat="51.9437409192" lon="-2.0175558608"><ele>255.85</ele><time>2013-12-04T12:28:45Z</time></trkpt><trkpt lat="51.9437197130" lon="-2.0175713673"><ele>256.81</ele><time>2013-12-04T12:28:48Z</time></trkpt><trkpt lat="51.9435818307" lon="-2.0176322199"><ele>256.81</ele><time>2013-12-04T12:29:02Z</time></trkpt><trkpt lat="51.9435713533" lon="-2.0176590420"><ele>256.81</ele><time>2013-12-04T12:29:06Z</time></trkpt><trkpt lat="51.9435409270" lon="-2.0177289471"><ele>257.77</ele><time>2013-12-04T12:29:20Z</time></trkpt><trkpt lat="51.9435375743" lon="-2.0177362394"><ele>257.29</ele><time>2013-12-04T12:29:28Z</time></trkpt><trkpt lat="51.9435377419" lon="-2.0177362394"><ele>257.29</ele><time>2013-12-04T12:29:30Z</time></trkpt></trkseg></trk></gpx>